Melaka, Malaysia
Current Conditions -  °F | °C
As of 5:00 PM on Tuesday 21 Oct 2014 (Local Time) from WMKM Reporting Station
Thunderstorm Thunderstorm  
Wind Chill: 75°   Ceiling: 26000
Heat Index: 75°   Visibility: 4mi
Dew Point: 73°   Wind: 2mph
Humidity: 94%   Direction: 110°ESE
Pressure: 29.85"   Gusts: NA
Location:  2.21°N, 102.25°E
Report Text: WMKM 210900Z 11002KT 6000 TSRA FEW008 FEW017CB SCT026 BKN260 24/23 Q1011
Loading
Personal Weather Stations






























Interactive Weather Map
Tropical Storm Tracking
New forecast layout! Learn more

10-Day Weather Forecast

Advertisements
Track Severe Weather on mobile